sensor_id;sensor_type;location;lat;lon;timestamp;P1;durP1;ratioP1;P2;durP2;ratioP2
37455;SDS011;23316;50.718;7.328;2022-07-05T00:00:25;3.03;;;1.58;;
37455;SDS011;23316;50.718;7.328;2022-07-05T00:02:53;3.40;;;1.25;;
37455;SDS011;23316;50.718;7.328;2022-07-05T00:05:20;2.17;;;1.15;;
37455;SDS011;23316;50.718;7.328;2022-07-05T00:07:48;2.70;;;1.20;;
37455;SDS011;23316;50.718;7.328;2022-07-05T00:10:15;3.10;;;1.00;;
37455;SDS011;23316;50.718;7.328;2022-07-05T00:12:44;7.18;;;1.23;;
37455;SDS011;23316;50.718;7.328;2022-07-05T00:15:12;1.85;;;0.65;;
37455;SDS011;23316;50.718;7.328;2022-07-05T00:17:39;5.13;;;0.82;;
37455;SDS011;23316;50.718;7.328;2022-07-05T00:20:07;5.55;;;0.80;;
37455;SDS011;23316;50.718;7.328;2022-07-05T00:22:35;1.52;;;0.90;;
37455;SDS011;23316;50.718;7.328;2022-07-05T00:25:03;1.88;;;0.80;;
37455;SDS011;23316;50.718;7.328;2022-07-05T00:27:31;2.28;;;1.00;;
37455;SDS011;23316;50.718;7.328;2022-07-05T00:30:00;1.80;;;1.10;;
37455;SDS011;23316;50.718;7.328;2022-07-05T00:32:27;4.20;;;1.30;;
37455;SDS011;23316;50.718;7.328;2022-07-05T00:34:54;2.97;;;1.35;;
37455;SDS011;23316;50.718;7.328;2022-07-05T00:37:22;3.35;;;1.67;;
37455;SDS011;23316;50.718;7.328;2022-07-05T00:39:50;3.20;;;0.90;;
37455;SDS011;23316;50.718;7.328;2022-07-05T00:42:17;3.72;;;1.10;;
37455;SDS011;23316;50.718;7.328;2022-07-05T00:44:45;1.40;;;1.00;;
37455;SDS011;23316;50.718;7.328;2022-07-05T00:47:13;2.88;;;1.17;;
37455;SDS011;23316;50.718;7.328;2022-07-05T00:49:41;2.67;;;1.45;;
37455;SDS011;23316;50.718;7.328;2022-07-05T00:52:10;2.55;;;1.25;;
37455;SDS011;23316;50.718;7.328;2022-07-05T00:54:38;3.25;;;1.10;;
37455;SDS011;23316;50.718;7.328;2022-07-05T00:57:06;2.55;;;1.05;;
37455;SDS011;23316;50.718;7.328;2022-07-05T00:59:33;4.50;;;1.20;;
37455;SDS011;23316;50.718;7.328;2022-07-05T01:02:01;2.03;;;1.00;;
37455;SDS011;23316;50.718;7.328;2022-07-05T01:04:30;3.30;;;1.20;;
37455;SDS011;23316;50.718;7.328;2022-07-05T01:06:57;1.92;;;1.00;;
37455;SDS011;23316;50.718;7.328;2022-07-05T01:09:26;2.35;;;1.10;;
37455;SDS011;23316;50.718;7.328;2022-07-05T01:11:54;5.68;;;1.38;;
37455;SDS011;23316;50.718;7.328;2022-07-05T01:14:22;4.60;;;1.38;;
37455;SDS011;23316;50.718;7.328;2022-07-05T01:16:50;4.30;;;1.80;;
37455;SDS011;23316;50.718;7.328;2022-07-05T01:19:20;5.80;;;1.58;;
37455;SDS011;23316;50.718;7.328;2022-07-05T01:21:49;4.32;;;1.73;;
37455;SDS011;23316;50.718;7.328;2022-07-05T01:24:18;4.63;;;1.40;;
37455;SDS011;23316;50.718;7.328;2022-07-05T01:26:47;2.72;;;1.75;;
37455;SDS011;23316;50.718;7.328;2022-07-05T01:29:16;3.38;;;1.58;;
37455;SDS011;23316;50.718;7.328;2022-07-05T01:31:43;7.78;;;1.98;;
37455;SDS011;23316;50.718;7.328;2022-07-05T01:34:11;4.35;;;1.50;;
37455;SDS011;23316;50.718;7.328;2022-07-05T01:36:39;5.25;;;1.40;;
37455;SDS011;23316;50.718;7.328;2022-07-05T01:39:07;3.67;;;1.50;;
37455;SDS011;23316;50.718;7.328;2022-07-05T01:41:36;3.83;;;1.52;;
37455;SDS011;23316;50.718;7.328;2022-07-05T01:44:04;2.13;;;1.30;;
37455;SDS011;23316;50.718;7.328;2022-07-05T01:46:32;4.55;;;2.15;;
37455;SDS011;23316;50.718;7.328;2022-07-05T01:49:03;4.75;;;1.67;;
37455;SDS011;23316;50.718;7.328;2022-07-05T01:51:39;2.10;;;1.40;;
37455;SDS011;23316;50.718;7.328;2022-07-05T01:54:11;9.68;;;2.63;;
37455;SDS011;23316;50.718;7.328;2022-07-05T01:56:40;2.05;;;1.75;;
37455;SDS011;23316;50.718;7.328;2022-07-05T01:59:07;6.18;;;2.67;;
37455;SDS011;23316;50.718;7.328;2022-07-05T02:01:35;4.18;;;1.55;;
37455;SDS011;23316;50.718;7.328;2022-07-05T02:04:05;1.75;;;1.30;;
37455;SDS011;23316;50.718;7.328;2022-07-05T02:06:34;1.52;;;1.10;;
37455;SDS011;23316;50.718;7.328;2022-07-05T02:09:02;2.13;;;1.00;;
37455;SDS011;23316;50.718;7.328;2022-07-05T02:11:31;2.20;;;1.17;;
37455;SDS011;23316;50.718;7.328;2022-07-05T02:14:00;12.10;;;1.52;;
37455;SDS011;23316;50.718;7.328;2022-07-05T02:16:27;1.70;;;1.25;;
37455;SDS011;23316;50.718;7.328;2022-07-05T02:18:56;2.05;;;1.20;;
37455;SDS011;23316;50.718;7.328;2022-07-05T02:21:23;2.10;;;1.52;;
37455;SDS011;23316;50.718;7.328;2022-07-05T02:23:51;3.58;;;1.73;;
37455;SDS011;23316;50.718;7.328;2022-07-05T02:26:18;3.70;;;1.80;;
37455;SDS011;23316;50.718;7.328;2022-07-05T02:28:46;2.25;;;1.42;;
37455;SDS011;23316;50.718;7.328;2022-07-05T02:31:15;3.53;;;1.50;;
37455;SDS011;23316;50.718;7.328;2022-07-05T02:33:45;3.65;;;1.75;;
37455;SDS011;23316;50.718;7.328;2022-07-05T02:36:12;6.88;;;1.88;;
37455;SDS011;23316;50.718;7.328;2022-07-05T02:38:40;4.53;;;1.90;;
37455;SDS011;23316;50.718;7.328;2022-07-05T02:41:08;2.95;;;1.90;;
37455;SDS011;23316;50.718;7.328;2022-07-05T02:43:36;2.65;;;1.30;;
37455;SDS011;23316;50.718;7.328;2022-07-05T02:46:05;3.65;;;1.83;;
37455;SDS011;23316;50.718;7.328;2022-07-05T02:48:36;4.53;;;1.95;;
37455;SDS011;23316;50.718;7.328;2022-07-05T02:51:04;2.53;;;1.50;;
37455;SDS011;23316;50.718;7.328;2022-07-05T02:53:33;4.78;;;1.70;;
37455;SDS011;23316;50.718;7.328;2022-07-05T02:56:01;2.80;;;1.48;;
37455;SDS011;23316;50.718;7.328;2022-07-05T02:58:29;5.93;;;1.45;;
37455;SDS011;23316;50.718;7.328;2022-07-05T03:00:56;4.32;;;1.80;;
37455;SDS011;23316;50.718;7.328;2022-07-05T03:03:24;4.03;;;1.88;;
37455;SDS011;23316;50.718;7.328;2022-07-05T03:05:53;3.78;;;1.75;;
37455;SDS011;23316;50.718;7.328;2022-07-05T03:08:20;3.22;;;2.05;;
37455;SDS011;23316;50.718;7.328;2022-07-05T03:10:47;4.85;;;1.88;;
37455;SDS011;23316;50.718;7.328;2022-07-05T03:13:15;3.63;;;1.75;;
37455;SDS011;23316;50.718;7.328;2022-07-05T03:15:42;5.20;;;2.22;;
37455;SDS011;23316;50.718;7.328;2022-07-05T03:18:10;4.40;;;2.00;;
37455;SDS011;23316;50.718;7.328;2022-07-05T03:20:37;3.08;;;1.83;;
37455;SDS011;23316;50.718;7.328;2022-07-05T03:23:06;3.75;;;2.22;;
37455;SDS011;23316;50.718;7.328;2022-07-05T03:25:33;5.97;;;2.08;;
37455;SDS011;23316;50.718;7.328;2022-07-05T03:28:02;3.75;;;2.05;;
37455;SDS011;23316;50.718;7.328;2022-07-05T03:30:29;7.50;;;3.50;;
37455;SDS011;23316;50.718;7.328;2022-07-05T03:32:57;5.45;;;3.10;;
37455;SDS011;23316;50.718;7.328;2022-07-05T03:35:25;6.63;;;3.35;;
37455;SDS011;23316;50.718;7.328;2022-07-05T03:37:53;6.63;;;2.70;;
37455;SDS011;23316;50.718;7.328;2022-07-05T03:40:22;3.38;;;2.28;;
37455;SDS011;23316;50.718;7.328;2022-07-05T03:42:50;4.90;;;2.40;;
37455;SDS011;23316;50.718;7.328;2022-07-05T03:45:17;5.60;;;2.35;;
37455;SDS011;23316;50.718;7.328;2022-07-05T03:47:45;3.65;;;2.20;;
37455;SDS011;23316;50.718;7.328;2022-07-05T03:50:12;4.18;;;2.42;;
37455;SDS011;23316;50.718;7.328;2022-07-05T03:52:40;3.20;;;2.10;;
37455;SDS011;23316;50.718;7.328;2022-07-05T03:55:08;3.35;;;2.17;;
37455;SDS011;23316;50.718;7.328;2022-07-05T03:57:37;5.15;;;2.35;;
37455;SDS011;23316;50.718;7.328;2022-07-05T04:00:05;4.32;;;2.20;;
37455;SDS011;23316;50.718;7.328;2022-07-05T04:02:33;3.90;;;2.05;;
37455;SDS011;23316;50.718;7.328;2022-07-05T04:05:01;4.30;;;2.28;;
37455;SDS011;23316;50.718;7.328;2022-07-05T04:07:28;7.63;;;2.33;;
37455;SDS011;23316;50.718;7.328;2022-07-05T04:09:56;4.47;;;2.17;;
37455;SDS011;23316;50.718;7.328;2022-07-05T04:12:23;4.38;;;1.98;;
37455;SDS011;23316;50.718;7.328;2022-07-05T04:14:53;5.47;;;2.05;;
37455;SDS011;23316;50.718;7.328;2022-07-05T04:17:20;4.05;;;2.00;;
37455;SDS011;23316;50.718;7.328;2022-07-05T04:19:48;5.80;;;2.55;;
37455;SDS011;23316;50.718;7.328;2022-07-05T04:22:15;5.70;;;1.92;;
37455;SDS011;23316;50.718;7.328;2022-07-05T04:24:42;3.58;;;2.38;;
37455;SDS011;23316;50.718;7.328;2022-07-05T04:27:26;6.68;;;2.28;;
37455;SDS011;23316;50.718;7.328;2022-07-05T04:29:55;4.90;;;2.50;;
37455;SDS011;23316;50.718;7.328;2022-07-05T04:32:23;4.93;;;2.33;;
37455;SDS011;23316;50.718;7.328;2022-07-05T04:34:50;5.20;;;2.25;;
37455;SDS011;23316;50.718;7.328;2022-07-05T04:37:18;4.22;;;2.10;;
37455;SDS011;23316;50.718;7.328;2022-07-05T04:39:45;3.58;;;2.10;;
37455;SDS011;23316;50.718;7.328;2022-07-05T04:42:13;7.43;;;3.00;;
37455;SDS011;23316;50.718;7.328;2022-07-05T04:44:40;3.30;;;2.63;;
37455;SDS011;23316;50.718;7.328;2022-07-05T04:47:09;4.72;;;2.63;;
37455;SDS011;23316;50.718;7.328;2022-07-05T04:49:36;6.13;;;2.65;;
37455;SDS011;23316;50.718;7.328;2022-07-05T04:52:04;4.70;;;2.42;;
37455;SDS011;23316;50.718;7.328;2022-07-05T04:54:32;4.97;;;2.30;;
37455;SDS011;23316;50.718;7.328;2022-07-05T04:56:59;5.55;;;2.35;;
37455;SDS011;23316;50.718;7.328;2022-07-05T04:59:26;6.95;;;2.80;;
37455;SDS011;23316;50.718;7.328;2022-07-05T05:01:54;4.07;;;2.70;;
37455;SDS011;23316;50.718;7.328;2022-07-05T05:04:23;6.07;;;2.97;;
37455;SDS011;23316;50.718;7.328;2022-07-05T05:06:50;4.90;;;2.72;;
37455;SDS011;23316;50.718;7.328;2022-07-05T05:09:18;4.68;;;2.78;;
37455;SDS011;23316;50.718;7.328;2022-07-05T05:11:46;7.25;;;2.78;;
37455;SDS011;23316;50.718;7.328;2022-07-05T05:14:13;4.43;;;2.75;;
37455;SDS011;23316;50.718;7.328;2022-07-05T05:16:41;5.28;;;2.53;;
37455;SDS011;23316;50.718;7.328;2022-07-05T05:19:08;6.07;;;3.22;;
37455;SDS011;23316;50.718;7.328;2022-07-05T05:21:37;8.32;;;3.17;;
37455;SDS011;23316;50.718;7.328;2022-07-05T05:24:05;5.93;;;2.78;;
37455;SDS011;23316;50.718;7.328;2022-07-05T05:26:33;10.13;;;4.55;;
37455;SDS011;23316;50.718;7.328;2022-07-05T05:29:01;6.20;;;3.42;;
37455;SDS011;23316;50.718;7.328;2022-07-05T05:31:29;5.20;;;2.38;;
37455;SDS011;23316;50.718;7.328;2022-07-05T05:33:57;6.20;;;4.63;;
37455;SDS011;23316;50.718;7.328;2022-07-05T05:36:25;15.95;;;5.93;;
37455;SDS011;23316;50.718;7.328;2022-07-05T05:38:54;6.95;;;4.55;;
37455;SDS011;23316;50.718;7.328;2022-07-05T05:41:22;8.65;;;4.78;;
37455;SDS011;23316;50.718;7.328;2022-07-05T05:43:54;7.30;;;4.35;;
37455;SDS011;23316;50.718;7.328;2022-07-05T05:46:22;8.35;;;5.18;;
37455;SDS011;23316;50.718;7.328;2022-07-05T05:48:51;12.60;;;5.88;;
37455;SDS011;23316;50.718;7.328;2022-07-05T05:51:18;8.63;;;5.72;;
37455;SDS011;23316;50.718;7.328;2022-07-05T05:53:46;9.13;;;5.13;;
37455;SDS011;23316;50.718;7.328;2022-07-05T05:56:14;10.68;;;5.15;;
37455;SDS011;23316;50.718;7.328;2022-07-05T05:58:42;11.32;;;6.85;;
37455;SDS011;23316;50.718;7.328;2022-07-05T06:01:09;8.13;;;6.22;;
37455;SDS011;23316;50.718;7.328;2022-07-05T06:03:37;10.60;;;7.10;;
37455;SDS011;23316;50.718;7.328;2022-07-05T06:06:04;8.77;;;5.40;;
37455;SDS011;23316;50.718;7.328;2022-07-05T06:08:32;8.73;;;4.97;;
37455;SDS011;23316;50.718;7.328;2022-07-05T06:10:59;16.02;;;6.20;;
37455;SDS011;23316;50.718;7.328;2022-07-05T06:13:31;14.07;;;6.45;;
37455;SDS011;23316;50.718;7.328;2022-07-05T06:15:58;12.90;;;6.40;;
37455;SDS011;23316;50.718;7.328;2022-07-05T06:18:26;11.85;;;5.22;;
37455;SDS011;23316;50.718;7.328;2022-07-05T06:20:54;6.75;;;4.40;;
37455;SDS011;23316;50.718;7.328;2022-07-05T06:23:21;13.00;;;6.03;;
37455;SDS011;23316;50.718;7.328;2022-07-05T06:25:48;10.95;;;5.20;;
37455;SDS011;23316;50.718;7.328;2022-07-05T06:28:16;8.90;;;5.20;;
37455;SDS011;23316;50.718;7.328;2022-07-05T06:30:45;12.38;;;6.18;;
37455;SDS011;23316;50.718;7.328;2022-07-05T06:33:12;6.47;;;4.43;;
37455;SDS011;23316;50.718;7.328;2022-07-05T06:35:40;8.50;;;5.38;;
37455;SDS011;23316;50.718;7.328;2022-07-05T06:38:08;9.85;;;5.88;;
37455;SDS011;23316;50.718;7.328;2022-07-05T06:40:36;13.45;;;6.45;;
37455;SDS011;23316;50.718;7.328;2022-07-05T06:43:05;10.52;;;6.38;;
37455;SDS011;23316;50.718;7.328;2022-07-05T06:45:33;12.15;;;6.63;;
37455;SDS011;23316;50.718;7.328;2022-07-05T06:48:03;10.88;;;7.43;;
37455;SDS011;23316;50.718;7.328;2022-07-05T06:50:32;9.18;;;6.68;;
37455;SDS011;23316;50.718;7.328;2022-07-05T06:53:02;13.50;;;6.38;;
37455;SDS011;23316;50.718;7.328;2022-07-05T06:55:30;9.82;;;5.90;;
37455;SDS011;23316;50.718;7.328;2022-07-05T06:57:58;11.57;;;6.43;;
37455;SDS011;23316;50.718;7.328;2022-07-05T07:00:26;14.57;;;7.72;;
37455;SDS011;23316;50.718;7.328;2022-07-05T07:02:54;12.27;;;6.50;;
37455;SDS011;23316;50.718;7.328;2022-07-05T07:05:23;9.40;;;5.45;;
37455;SDS011;23316;50.718;7.328;2022-07-05T07:07:50;11.27;;;6.32;;
37455;SDS011;23316;50.718;7.328;2022-07-05T07:10:35;7.75;;;4.72;;
37455;SDS011;23316;50.718;7.328;2022-07-05T07:13:03;8.73;;;6.05;;
37455;SDS011;23316;50.718;7.328;2022-07-05T07:15:30;9.77;;;5.88;;
37455;SDS011;23316;50.718;7.328;2022-07-05T07:17:59;10.73;;;5.75;;
37455;SDS011;23316;50.718;7.328;2022-07-05T07:20:28;10.68;;;6.35;;
37455;SDS011;23316;50.718;7.328;2022-07-05T07:22:55;10.18;;;5.63;;
37455;SDS011;23316;50.718;7.328;2022-07-05T07:25:23;8.43;;;5.15;;
37455;SDS011;23316;50.718;7.328;2022-07-05T07:27:51;9.23;;;5.70;;
37455;SDS011;23316;50.718;7.328;2022-07-05T07:30:21;11.25;;;5.65;;
37455;SDS011;23316;50.718;7.328;2022-07-05T07:32:50;14.40;;;5.97;;
37455;SDS011;23316;50.718;7.328;2022-07-05T07:35:18;10.75;;;6.05;;
37455;SDS011;23316;50.718;7.328;2022-07-05T07:37:47;9.63;;;4.90;;
37455;SDS011;23316;50.718;7.328;2022-07-05T07:40:15;16.17;;;5.60;;
37455;SDS011;23316;50.718;7.328;2022-07-05T07:42:43;8.73;;;4.88;;
37455;SDS011;23316;50.718;7.328;2022-07-05T07:45:11;5.40;;;4.70;;
37455;SDS011;23316;50.718;7.328;2022-07-05T07:47:38;8.50;;;4.75;;
37455;SDS011;23316;50.718;7.328;2022-07-05T07:50:06;7.85;;;4.05;;
37455;SDS011;23316;50.718;7.328;2022-07-05T07:52:33;6.97;;;4.40;;
37455;SDS011;23316;50.718;7.328;2022-07-05T07:55:04;8.57;;;4.32;;
37455;SDS011;23316;50.718;7.328;2022-07-05T07:57:32;7.22;;;4.05;;
37455;SDS011;23316;50.718;7.328;2022-07-05T07:59:59;6.50;;;3.55;;
37455;SDS011;23316;50.718;7.328;2022-07-05T08:02:27;6.75;;;3.72;;
37455;SDS011;23316;50.718;7.328;2022-07-05T08:04:55;5.22;;;3.25;;
37455;SDS011;23316;50.718;7.328;2022-07-05T08:07:23;7.97;;;3.53;;
37455;SDS011;23316;50.718;7.328;2022-07-05T08:09:51;10.40;;;4.25;;
37455;SDS011;23316;50.718;7.328;2022-07-05T08:12:20;8.38;;;3.55;;
37455;SDS011;23316;50.718;7.328;2022-07-05T08:14:47;7.82;;;3.75;;
37455;SDS011;23316;50.718;7.328;2022-07-05T08:17:15;6.25;;;3.60;;
37455;SDS011;23316;50.718;7.328;2022-07-05T08:19:42;9.52;;;3.33;;
37455;SDS011;23316;50.718;7.328;2022-07-05T08:22:27;7.30;;;3.92;;
37455;SDS011;23316;50.718;7.328;2022-07-05T08:24:55;3.65;;;2.70;;
37455;SDS011;23316;50.718;7.328;2022-07-05T08:27:24;11.70;;;3.28;;
37455;SDS011;23316;50.718;7.328;2022-07-05T08:29:52;7.82;;;3.88;;
37455;SDS011;23316;50.718;7.328;2022-07-05T08:32:19;9.95;;;2.88;;
37455;SDS011;23316;50.718;7.328;2022-07-05T08:34:47;7.70;;;3.75;;
37455;SDS011;23316;50.718;7.328;2022-07-05T08:37:15;4.60;;;2.92;;
37455;SDS011;23316;50.718;7.328;2022-07-05T08:39:42;7.18;;;4.13;;
37455;SDS011;23316;50.718;7.328;2022-07-05T08:42:10;13.00;;;3.22;;
37455;SDS011;23316;50.718;7.328;2022-07-05T08:44:41;7.93;;;3.35;;
37455;SDS011;23316;50.718;7.328;2022-07-05T08:47:10;5.93;;;3.20;;
37455;SDS011;23316;50.718;7.328;2022-07-05T08:49:38;5.03;;;2.60;;
37455;SDS011;23316;50.718;7.328;2022-07-05T08:52:09;6.72;;;2.60;;
37455;SDS011;23316;50.718;7.328;2022-07-05T08:54:37;11.13;;;3.65;;
37455;SDS011;23316;50.718;7.328;2022-07-05T08:57:05;9.57;;;3.78;;
37455;SDS011;23316;50.718;7.328;2022-07-05T08:59:33;5.75;;;3.65;;
37455;SDS011;23316;50.718;7.328;2022-07-05T09:02:02;6.07;;;3.20;;
37455;SDS011;23316;50.718;7.328;2022-07-05T09:04:30;6.25;;;2.92;;
37455;SDS011;23316;50.718;7.328;2022-07-05T09:07:03;9.02;;;3.50;;
37455;SDS011;23316;50.718;7.328;2022-07-05T09:09:33;10.32;;;3.92;;
37455;SDS011;23316;50.718;7.328;2022-07-05T09:12:04;12.07;;;4.22;;
37455;SDS011;23316;50.718;7.328;2022-07-05T09:14:33;7.97;;;3.47;;
37455;SDS011;23316;50.718;7.328;2022-07-05T09:17:02;4.90;;;2.90;;
37455;SDS011;23316;50.718;7.328;2022-07-05T09:19:30;6.78;;;3.08;;
37455;SDS011;23316;50.718;7.328;2022-07-05T09:22:00;7.07;;;3.00;;
37455;SDS011;23316;50.718;7.328;2022-07-05T09:24:29;5.47;;;3.67;;
37455;SDS011;23316;50.718;7.328;2022-07-05T09:27:04;6.45;;;3.30;;
37455;SDS011;23316;50.718;7.328;2022-07-05T09:29:32;6.65;;;3.20;;
37455;SDS011;23316;50.718;7.328;2022-07-05T09:31:59;9.90;;;4.07;;
37455;SDS011;23316;50.718;7.328;2022-07-05T09:34:28;9.18;;;4.32;;
37455;SDS011;23316;50.718;7.328;2022-07-05T09:36:56;7.93;;;3.97;;
37455;SDS011;23316;50.718;7.328;2022-07-05T09:39:34;4.90;;;3.15;;
37455;SDS011;23316;50.718;7.328;2022-07-05T09:42:13;8.88;;;3.70;;
37455;SDS011;23316;50.718;7.328;2022-07-05T09:44:45;4.03;;;2.88;;
37455;SDS011;23316;50.718;7.328;2022-07-05T09:47:15;5.47;;;2.67;;
37455;SDS011;23316;50.718;7.328;2022-07-05T09:49:43;5.97;;;3.33;;
37455;SDS011;23316;50.718;7.328;2022-07-05T09:52:25;5.85;;;2.88;;
37455;SDS011;23316;50.718;7.328;2022-07-05T09:55:00;5.97;;;2.88;;
37455;SDS011;23316;50.718;7.328;2022-07-05T09:57:28;7.18;;;3.20;;
37455;SDS011;23316;50.718;7.328;2022-07-05T09:59:59;5.40;;;2.30;;
37455;SDS011;23316;50.718;7.328;2022-07-05T10:02:36;7.22;;;3.55;;
37455;SDS011;23316;50.718;7.328;2022-07-05T10:05:09;5.03;;;2.60;;
37455;SDS011;23316;50.718;7.328;2022-07-05T10:07:38;8.65;;;2.67;;
37455;SDS011;23316;50.718;7.328;2022-07-05T10:10:07;8.00;;;2.80;;
37455;SDS011;23316;50.718;7.328;2022-07-05T10:12:36;5.95;;;2.47;;
37455;SDS011;23316;50.718;7.328;2022-07-05T10:15:05;5.43;;;2.17;;
37455;SDS011;23316;50.718;7.328;2022-07-05T10:17:38;9.45;;;2.55;;
37455;SDS011;23316;50.718;7.328;2022-07-05T10:20:11;5.32;;;2.80;;
37455;SDS011;23316;50.718;7.328;2022-07-05T10:22:43;5.72;;;2.40;;
37455;SDS011;23316;50.718;7.328;2022-07-05T10:25:11;2.80;;;1.80;;
37455;SDS011;23316;50.718;7.328;2022-07-05T10:27:39;5.63;;;2.67;;
37455;SDS011;23316;50.718;7.328;2022-07-05T10:30:08;4.88;;;1.88;;
37455;SDS011;23316;50.718;7.328;2022-07-05T10:32:39;4.93;;;2.50;;
37455;SDS011;23316;50.718;7.328;2022-07-05T10:35:07;5.68;;;2.10;;
37455;SDS011;23316;50.718;7.328;2022-07-05T10:37:35;5.03;;;2.28;;
37455;SDS011;23316;50.718;7.328;2022-07-05T10:40:04;4.57;;;2.30;;
37455;SDS011;23316;50.718;7.328;2022-07-05T10:42:37;5.20;;;1.75;;
37455;SDS011;23316;50.718;7.328;2022-07-05T10:45:23;6.30;;;2.33;;
37455;SDS011;23316;50.718;7.328;2022-07-05T10:50:49;3.33;;;1.63;;
37455;SDS011;23316;50.718;7.328;2022-07-05T10:53:19;5.65;;;1.65;;
37455;SDS011;23316;50.718;7.328;2022-07-05T10:55:51;4.57;;;1.67;;
37455;SDS011;23316;50.718;7.328;2022-07-05T10:58:21;2.75;;;1.65;;
37455;SDS011;23316;50.718;7.328;2022-07-05T11:06:58;8.63;;;1.75;;
37455;SDS011;23316;50.718;7.328;2022-07-05T11:09:25;4.18;;;1.90;;
37455;SDS011;23316;50.718;7.328;2022-07-05T11:12:04;3.97;;;1.73;;
37455;SDS011;23316;50.718;7.328;2022-07-05T11:14:34;4.22;;;1.80;;
37455;SDS011;23316;50.718;7.328;2022-07-05T11:17:13;3.33;;;1.50;;
37455;SDS011;23316;50.718;7.328;2022-07-05T11:23:05;2.73;;;1.60;;
37455;SDS011;23316;50.718;7.328;2022-07-05T11:25:34;2.10;;;1.40;;
37455;SDS011;23316;50.718;7.328;2022-07-05T11:28:04;5.90;;;1.80;;
37455;SDS011;23316;50.718;7.328;2022-07-05T11:30:47;4.85;;;1.60;;
37455;SDS011;23316;50.718;7.328;2022-07-05T11:33:25;8.23;;;1.60;;
37455;SDS011;23316;50.718;7.328;2022-07-05T11:35:59;2.75;;;1.40;;
37455;SDS011;23316;50.718;7.328;2022-07-05T11:38:27;2.55;;;1.30;;
37455;SDS011;23316;50.718;7.328;2022-07-05T11:40:56;4.07;;;1.58;;
37455;SDS011;23316;50.718;7.328;2022-07-05T11:43:36;4.25;;;1.85;;
37455;SDS011;23316;50.718;7.328;2022-07-05T11:46:04;2.30;;;1.60;;
37455;SDS011;23316;50.718;7.328;2022-07-05T11:48:31;6.47;;;1.98;;
37455;SDS011;23316;50.718;7.328;2022-07-05T11:51:06;3.30;;;1.58;;
37455;SDS011;23316;50.718;7.328;2022-07-05T11:53:39;3.97;;;1.42;;
37455;SDS011;23316;50.718;7.328;2022-07-05T11:56:09;2.97;;;1.58;;
37455;SDS011;23316;50.718;7.328;2022-07-05T11:58:36;2.63;;;1.38;;
37455;SDS011;23316;50.718;7.328;2022-07-05T12:01:04;6.68;;;2.05;;
37455;SDS011;23316;50.718;7.328;2022-07-05T12:03:32;7.70;;;1.98;;
37455;SDS011;23316;50.718;7.328;2022-07-05T12:06:11;2.13;;;1.45;;
37455;SDS011;23316;50.718;7.328;2022-07-05T12:08:39;4.43;;;1.70;;
37455;SDS011;23316;50.718;7.328;2022-07-05T12:11:09;2.33;;;1.40;;
37455;SDS011;23316;50.718;7.328;2022-07-05T12:13:54;5.57;;;2.55;;
37455;SDS011;23316;50.718;7.328;2022-07-05T12:16:22;2.67;;;1.40;;
37455;SDS011;23316;50.718;7.328;2022-07-05T12:18:51;4.90;;;1.70;;
37455;SDS011;23316;50.718;7.328;2022-07-05T12:21:22;7.82;;;1.88;;
37455;SDS011;23316;50.718;7.328;2022-07-05T12:23:50;4.18;;;1.80;;
37455;SDS011;23316;50.718;7.328;2022-07-05T12:26:18;5.05;;;1.58;;
37455;SDS011;23316;50.718;7.328;2022-07-05T12:28:48;4.18;;;1.50;;
37455;SDS011;23316;50.718;7.328;2022-07-05T12:31:18;4.32;;;1.65;;
37455;SDS011;23316;50.718;7.328;2022-07-05T12:33:46;2.17;;;1.35;;
37455;SDS011;23316;50.718;7.328;2022-07-05T12:36:15;6.15;;;1.42;;
37455;SDS011;23316;50.718;7.328;2022-07-05T12:38:45;6.85;;;1.92;;
37455;SDS011;23316;50.718;7.328;2022-07-05T12:41:20;2.63;;;1.40;;
37455;SDS011;23316;50.718;7.328;2022-07-05T12:43:49;8.43;;;1.60;;
37455;SDS011;23316;50.718;7.328;2022-07-05T12:46:18;3.00;;;1.60;;
37455;SDS011;23316;50.718;7.328;2022-07-05T12:48:51;2.08;;;1.30;;
37455;SDS011;23316;50.718;7.328;2022-07-05T12:51:33;6.72;;;1.63;;
37455;SDS011;23316;50.718;7.328;2022-07-05T12:54:03;2.92;;;1.17;;
37455;SDS011;23316;50.718;7.328;2022-07-05T12:56:50;4.28;;;1.20;;
37455;SDS011;23316;50.718;7.328;2022-07-05T12:59:36;7.45;;;1.70;;
37455;SDS011;23316;50.718;7.328;2022-07-05T13:02:05;3.78;;;1.60;;
37455;SDS011;23316;50.718;7.328;2022-07-05T13:04:33;5.47;;;1.50;;
37455;SDS011;23316;50.718;7.328;2022-07-05T13:07:01;2.83;;;1.60;;
37455;SDS011;23316;50.718;7.328;2022-07-05T13:09:33;5.43;;;1.67;;
37455;SDS011;23316;50.718;7.328;2022-07-05T13:12:04;3.70;;;1.70;;
37455;SDS011;23316;50.718;7.328;2022-07-05T13:14:36;3.80;;;1.15;;
37455;SDS011;23316;50.718;7.328;2022-07-05T13:17:05;4.95;;;1.67;;
37455;SDS011;23316;50.718;7.328;2022-07-05T13:19:33;1.95;;;1.33;;
37455;SDS011;23316;50.718;7.328;2022-07-05T13:22:01;2.53;;;1.42;;
37455;SDS011;23316;50.718;7.328;2022-07-05T13:24:30;9.32;;;1.45;;
37455;SDS011;23316;50.718;7.328;2022-07-05T13:26:59;4.90;;;1.77;;
37455;SDS011;23316;50.718;7.328;2022-07-05T13:29:27;5.18;;;1.05;;
37455;SDS011;23316;50.718;7.328;2022-07-05T13:31:54;4.72;;;1.45;;
37455;SDS011;23316;50.718;7.328;2022-07-05T13:34:22;4.03;;;1.83;;
37455;SDS011;23316;50.718;7.328;2022-07-05T13:36:52;3.60;;;1.40;;
37455;SDS011;23316;50.718;7.328;2022-07-05T13:39:21;8.65;;;1.58;;
37455;SDS011;23316;50.718;7.328;2022-07-05T13:41:51;2.13;;;1.50;;
37455;SDS011;23316;50.718;7.328;2022-07-05T13:44:21;2.88;;;1.38;;
37455;SDS011;23316;50.718;7.328;2022-07-05T13:46:49;4.38;;;1.30;;
37455;SDS011;23316;50.718;7.328;2022-07-05T13:49:16;2.40;;;1.40;;
37455;SDS011;23316;50.718;7.328;2022-07-05T13:51:45;2.03;;;1.10;;
37455;SDS011;23316;50.718;7.328;2022-07-05T13:54:12;3.53;;;1.33;;
37455;SDS011;23316;50.718;7.328;2022-07-05T13:56:40;7.60;;;1.58;;
37455;SDS011;23316;50.718;7.328;2022-07-05T13:59:08;4.07;;;1.30;;
37455;SDS011;23316;50.718;7.328;2022-07-05T14:01:36;2.47;;;1.42;;
37455;SDS011;23316;50.718;7.328;2022-07-05T14:04:04;5.30;;;1.70;;
37455;SDS011;23316;50.718;7.328;2022-07-05T14:06:32;3.72;;;1.60;;
37455;SDS011;23316;50.718;7.328;2022-07-05T14:09:00;3.33;;;1.33;;
37455;SDS011;23316;50.718;7.328;2022-07-05T14:11:28;2.75;;;1.52;;
37455;SDS011;23316;50.718;7.328;2022-07-05T14:13:58;3.25;;;1.45;;
37455;SDS011;23316;50.718;7.328;2022-07-05T14:16:27;4.78;;;1.50;;
37455;SDS011;23316;50.718;7.328;2022-07-05T14:19:06;3.50;;;1.40;;
37455;SDS011;23316;50.718;7.328;2022-07-05T14:21:33;4.65;;;1.92;;
37455;SDS011;23316;50.718;7.328;2022-07-05T14:24:01;2.20;;;1.20;;
37455;SDS011;23316;50.718;7.328;2022-07-05T14:26:28;5.72;;;1.25;;
37455;SDS011;23316;50.718;7.328;2022-07-05T14:28:58;7.85;;;1.70;;
37455;SDS011;23316;50.718;7.328;2022-07-05T14:31:26;2.85;;;1.40;;
37455;SDS011;23316;50.718;7.328;2022-07-05T14:33:56;8.40;;;1.50;;
37455;SDS011;23316;50.718;7.328;2022-07-05T14:36:25;3.38;;;1.20;;
37455;SDS011;23316;50.718;7.328;2022-07-05T14:38:53;2.80;;;1.35;;
37455;SDS011;23316;50.718;7.328;2022-07-05T14:41:21;4.90;;;1.27;;
37455;SDS011;23316;50.718;7.328;2022-07-05T14:43:48;4.40;;;1.23;;
37455;SDS011;23316;50.718;7.328;2022-07-05T14:46:16;4.95;;;1.15;;
37455;SDS011;23316;50.718;7.328;2022-07-05T14:48:44;2.28;;;1.27;;
37455;SDS011;23316;50.718;7.328;2022-07-05T14:51:12;2.85;;;1.13;;
37455;SDS011;23316;50.718;7.328;2022-07-05T14:53:41;2.65;;;1.08;;
37455;SDS011;23316;50.718;7.328;2022-07-05T14:56:11;7.03;;;1.35;;
37455;SDS011;23316;50.718;7.328;2022-07-05T14:58:39;5.38;;;1.17;;
37455;SDS011;23316;50.718;7.328;2022-07-05T15:01:07;3.92;;;0.95;;
37455;SDS011;23316;50.718;7.328;2022-07-05T15:03:35;4.95;;;1.10;;
37455;SDS011;23316;50.718;7.328;2022-07-05T15:06:05;4.47;;;1.15;;
37455;SDS011;23316;50.718;7.328;2022-07-05T15:08:32;5.78;;;1.45;;